Carolina Hills, North Carolina
Current Conditions -  °F | °C
As of 7:54 AM on Thursday 23 Oct 2014 (Local Time) from KAVL Reporting Station
Clear Clear  
Wind Chill: 38°   Ceiling: Unl
Heat Index: 43°   Visibility: 10mi
Dew Point: 35°   Wind: 8mph
Humidity: 74%   Direction: 350°N
Pressure: 30.14"   Gusts: NA
Location:  35.4492°N, 82.4624°W
Report Text: KAVL 231154Z 35007KT 10SM CLR 06/02 A3014 RMK AO2 SLP205 T00610017 10072 20056 52004
Loading
Personal Weather Stations






























Interactive Weather Map
Tropical Storm Tracking
New forecast layout! Learn more

10-Day Weather Forecast

Advertisements
Track Severe Weather on mobile